createdAt,value
2018-09-03T00:01:12.736Z,17.20
2018-09-03T00:03:41.707Z,17.20
2018-09-03T00:06:10.598Z,17.20
2018-09-03T00:08:38.807Z,17.20
2018-09-03T00:11:07.808Z,17.20
2018-09-03T00:13:36.784Z,17.20
2018-09-03T00:16:05.298Z,17.20
2018-09-03T00:18:33.497Z,17.20
2018-09-03T00:21:01.718Z,17.20
2018-09-03T00:23:29.928Z,17.10
2018-09-03T00:25:58.148Z,17.10
2018-09-03T00:28:26.352Z,17.10
2018-09-03T00:30:55.392Z,17.10
2018-09-03T00:33:29.285Z,17.10
2018-09-03T00:36:13.349Z,17.10
2018-09-03T00:38:56.416Z,17.10
2018-09-03T00:41:40.338Z,17.10
2018-09-03T00:47:05.101Z,17.20
2018-09-03T00:49:34.109Z,17.10
2018-09-03T00:52:02.364Z,17.10
2018-09-03T00:54:31.979Z,17.20
2018-09-03T00:57:00.978Z,17.30
2018-09-03T00:59:29.227Z,17.20
2018-09-03T01:01:57.468Z,17.20
2018-09-03T01:04:25.682Z,17.30
2018-09-03T01:06:53.938Z,17.10
2018-09-03T01:09:22.154Z,17.20
2018-09-03T01:11:51.212Z,17.10
2018-09-03T01:14:19.474Z,17.10
2018-09-03T01:16:47.728Z,17.10
2018-09-03T01:19:15.924Z,17.10
2018-09-03T01:21:44.203Z,17.10
2018-09-03T01:24:12.392Z,17.10
2018-09-03T01:26:40.612Z,17.10
2018-09-03T01:29:08.862Z,17.00
2018-09-03T01:31:37.127Z,17.00
2018-09-03T01:34:05.310Z,17.00
2018-09-03T01:36:33.606Z,17.00
2018-09-03T01:39:01.840Z,16.90
2018-09-03T01:41:30.080Z,16.90
2018-09-03T01:43:58.332Z,17.00
2018-09-03T01:46:26.542Z,16.90
2018-09-03T01:48:55.833Z,16.90
2018-09-03T01:51:24.027Z,16.90
2018-09-03T01:53:52.255Z,16.90
2018-09-03T01:56:21.279Z,16.90
2018-09-03T01:58:49.519Z,16.80
2018-09-03T02:01:17.743Z,16.90
2018-09-03T02:03:45.947Z,16.90
2018-09-03T02:06:14.215Z,16.90
2018-09-03T02:08:42.457Z,16.90
2018-09-03T02:11:11.436Z,16.90
2018-09-03T02:13:40.401Z,16.90
2018-09-03T02:16:08.686Z,16.80
2018-09-03T02:18:36.942Z,16.90
2018-09-03T02:21:05.243Z,16.90
2018-09-03T02:23:33.437Z,16.90
2018-09-03T02:26:02.422Z,16.80
2018-09-03T02:28:31.450Z,16.80
2018-09-03T02:30:59.662Z,16.80
2018-09-03T02:33:27.876Z,16.80
2018-09-03T02:35:56.894Z,16.80
2018-09-03T02:38:25.158Z,16.80
2018-09-03T02:40:54.174Z,16.80
2018-09-03T02:43:22.376Z,16.80
2018-09-03T02:45:50.640Z,16.90
2018-09-03T02:48:18.874Z,16.90
2018-09-03T02:50:47.854Z,16.90
2018-09-03T02:53:16.114Z,16.90
2018-09-03T02:55:44.329Z,16.90
2018-09-03T02:58:13.338Z,17.00
2018-09-03T03:00:41.540Z,16.90
2018-09-03T03:03:09.743Z,16.90
2018-09-03T03:05:38.010Z,17.00
2018-09-03T03:08:06.247Z,16.90
2018-09-03T03:10:34.466Z,16.90
2018-09-03T03:13:02.707Z,16.90
2018-09-03T03:15:30.931Z,16.90
2018-09-03T03:17:59.959Z,16.90
2018-09-03T03:20:28.169Z,16.90
2018-09-03T03:22:56.851Z,16.90
2018-09-03T03:25:25.081Z,16.90
2018-09-03T03:27:54.097Z,17.00
2018-09-03T03:30:22.345Z,17.00
2018-09-03T03:32:51.322Z,17.00
2018-09-03T03:35:19.541Z,17.00
2018-09-03T03:37:47.751Z,17.00
2018-09-03T03:40:15.993Z,17.00
2018-09-03T03:42:44.207Z,17.00
2018-09-03T03:45:12.471Z,17.00
2018-09-03T03:47:40.679Z,17.00
2018-09-03T03:50:08.940Z,17.00
2018-09-03T03:52:37.214Z,17.00
2018-09-03T03:55:05.463Z,17.00
2018-09-03T03:57:33.652Z,17.00
2018-09-03T04:00:01.857Z,17.00
2018-09-03T04:02:30.081Z,17.00
2018-09-03T04:04:58.297Z,17.10
2018-09-03T04:07:27.049Z,17.10
2018-09-03T04:09:55.268Z,17.10
2018-09-03T04:12:23.487Z,17.10
2018-09-03T04:14:51.749Z,17.10
2018-09-03T04:17:20.727Z,17.10
2018-09-03T04:19:48.935Z,17.10
2018-09-03T04:22:17.158Z,17.10
2018-09-03T04:24:45.356Z,17.10
2018-09-03T04:27:13.579Z,17.10
2018-09-03T04:29:41.793Z,17.10
2018-09-03T04:32:10.017Z,17.10
2018-09-03T04:34:38.275Z,17.10
2018-09-03T04:37:07.299Z,17.10
2018-09-03T04:39:35.505Z,17.10
2018-09-03T04:42:03.719Z,17.10
2018-09-03T04:44:32.741Z,17.10
2018-09-03T04:47:00.955Z,17.10
2018-09-03T04:49:29.165Z,17.10
2018-09-03T04:51:58.217Z,17.10
2018-09-03T04:54:26.417Z,17.10
2018-09-03T04:56:54.631Z,17.20
2018-09-03T04:59:22.859Z,17.20
2018-09-03T05:01:51.118Z,17.20
2018-09-03T05:04:19.355Z,17.20
2018-09-03T05:06:47.576Z,17.20
2018-09-03T05:09:15.865Z,17.20
2018-09-03T05:11:44.144Z,17.20
2018-09-03T05:14:12.339Z,17.20
2018-09-03T05:16:40.597Z,17.20
2018-09-03T05:19:08.846Z,17.20
2018-09-03T05:21:37.833Z,17.20
2018-09-03T05:24:06.078Z,17.20
2018-09-03T05:26:35.068Z,17.30
2018-09-03T05:29:04.051Z,17.30
2018-09-03T05:31:33.045Z,17.30
2018-09-03T05:34:02.055Z,17.30
2018-09-03T05:36:31.075Z,17.30
2018-09-03T05:38:59.275Z,17.30
2018-09-03T05:41:27.564Z,17.40
2018-09-03T05:43:55.846Z,17.40
2018-09-03T05:46:24.046Z,17.50
2018-09-03T05:48:53.052Z,17.50
2018-09-03T05:51:22.037Z,17.50
2018-09-03T05:53:51.052Z,17.60
2018-09-03T05:56:19.298Z,17.60
2018-09-03T05:58:47.512Z,17.70
2018-09-03T06:01:15.733Z,17.70
2018-09-03T06:03:43.976Z,17.80
2018-09-03T06:06:12.237Z,17.80
2018-09-03T06:08:40.489Z,17.80
2018-09-03T06:11:09.546Z,17.90
2018-09-03T06:13:38.455Z,17.90
2018-09-03T06:16:06.733Z,17.90
2018-09-03T06:18:34.933Z,17.90
2018-09-03T06:21:03.918Z,17.90
2018-09-03T06:23:32.917Z,17.90
2018-09-03T06:26:01.990Z,17.90
2018-09-03T06:28:30.175Z,17.90
2018-09-03T06:30:59.175Z,17.90
2018-09-03T06:33:28.198Z,17.80
2018-09-03T06:35:56.497Z,17.90
2018-09-03T06:38:24.674Z,17.90
2018-09-03T06:40:53.519Z,17.80
2018-09-03T06:43:23.062Z,17.90
2018-09-03T06:45:52.101Z,17.90
2018-09-03T06:48:20.330Z,17.90
2018-09-03T06:50:48.560Z,17.90
2018-09-03T06:53:16.767Z,17.90
2018-09-03T06:55:44.995Z,18.00
2018-09-03T06:58:13.201Z,18.00
2018-09-03T07:00:42.227Z,18.00
2018-09-03T07:03:10.471Z,18.00
2018-09-03T07:05:38.723Z,18.10
2018-09-03T07:08:07.724Z,18.10
2018-09-03T07:10:35.921Z,18.10
2018-09-03T07:13:04.955Z,18.10
2018-09-03T07:15:33.157Z,18.10
2018-09-03T07:18:01.423Z,18.10
2018-09-03T07:20:29.637Z,18.20
2018-09-03T07:22:58.629Z,18.20
2018-09-03T07:25:27.655Z,18.20
2018-09-03T07:27:55.866Z,18.20
2018-09-03T07:30:24.076Z,18.20
2018-09-03T07:32:53.112Z,18.30
2018-09-03T07:35:21.314Z,18.30
2018-09-03T07:37:49.592Z,18.30
2018-09-03T07:40:17.782Z,18.30
2018-09-03T07:42:46.050Z,18.40
2018-09-03T07:45:14.254Z,18.40
2018-09-03T07:47:43.257Z,18.40
2018-09-03T07:50:11.495Z,18.40
2018-09-03T07:52:39.698Z,18.40
2018-09-03T07:55:08.696Z,18.40
2018-09-03T07:57:36.954Z,18.40
2018-09-03T08:00:05.150Z,18.50
2018-09-03T08:02:34.164Z,18.60
2018-09-03T08:05:02.380Z,18.60
2018-09-03T08:07:30.713Z,18.60
2018-09-03T08:09:58.843Z,18.70
2018-09-03T08:12:27.109Z,18.70
2018-09-03T08:14:56.077Z,18.80
2018-09-03T08:17:24.298Z,18.80
2018-09-03T08:19:52.581Z,18.90
2018-09-03T08:22:20.749Z,18.90
2018-09-03T08:24:48.995Z,19.00
2018-09-03T08:27:18.169Z,19.00
2018-09-03T08:29:46.429Z,19.00
2018-09-03T08:32:15.398Z,19.10
2018-09-03T08:34:43.661Z,19.10
2018-09-03T08:37:11.924Z,19.10
2018-09-03T08:39:40.154Z,19.10
2018-09-03T08:42:09.184Z,19.20
2018-09-03T08:44:37.376Z,19.10
2018-09-03T08:47:05.607Z,19.20
2018-09-03T08:49:33.866Z,19.20
2018-09-03T08:52:02.089Z,19.30
2018-09-03T08:54:30.336Z,19.20
2018-09-03T08:56:59.321Z,19.30
2018-09-03T08:59:28.302Z,19.30
2018-09-03T09:01:56.516Z,19.30
2018-09-03T09:04:24.722Z,19.30
2018-09-03T09:06:52.962Z,19.30
2018-09-03T09:09:21.208Z,19.40
2018-09-03T09:11:49.528Z,19.40
2018-09-03T09:14:17.718Z,19.40
2018-09-03T09:16:45.968Z,19.50
2018-09-03T09:19:14.180Z,19.50
2018-09-03T09:21:42.457Z,19.60
2018-09-03T09:24:10.660Z,19.70
2018-09-03T09:26:38.900Z,19.70
2018-09-03T09:29:07.156Z,19.70
2018-09-03T09:31:35.379Z,19.80
2018-09-03T09:34:03.619Z,19.80
2018-09-03T09:36:31.878Z,19.90
2018-09-03T09:39:00.126Z,19.90
2018-09-03T09:41:28.327Z,20.00
2018-09-03T09:43:56.585Z,20.00
2018-09-03T09:46:25.616Z,20.10
2018-09-03T09:48:53.868Z,20.10
2018-09-03T09:51:22.845Z,20.20
2018-09-03T09:53:51.867Z,20.20
2018-09-03T09:56:20.141Z,20.20
2018-09-03T09:58:48.384Z,20.30
2018-09-03T10:01:16.647Z,20.30
2018-09-03T10:03:44.853Z,20.30
2018-09-03T10:06:13.103Z,20.30
2018-09-03T10:08:41.347Z,20.30
2018-09-03T10:11:09.551Z,20.40
2018-09-03T10:13:37.771Z,20.30
2018-09-03T10:16:05.984Z,20.30
2018-09-03T10:18:34.307Z,20.30
2018-09-03T10:21:02.498Z,20.30
2018-09-03T10:23:30.731Z,20.20
2018-09-03T10:25:58.979Z,20.20
2018-09-03T10:28:27.196Z,20.20
2018-09-03T10:30:55.462Z,20.10
2018-09-03T10:33:23.683Z,20.10
2018-09-03T10:35:51.938Z,20.10
2018-09-03T10:38:20.974Z,20.00
2018-09-03T10:40:49.193Z,20.00
2018-09-03T10:43:17.408Z,20.00
2018-09-03T10:45:45.707Z,20.10
2018-09-03T10:48:13.962Z,20.10
2018-09-03T10:50:42.163Z,20.10
2018-09-03T10:53:10.439Z,20.10
2018-09-03T10:55:38.633Z,20.00
2018-09-03T10:58:06.906Z,20.10
2018-09-03T11:00:35.109Z,20.10
2018-09-03T11:03:03.329Z,20.10
2018-09-03T11:05:31.617Z,20.00
2018-09-03T11:07:59.861Z,20.00
2018-09-03T11:10:28.826Z,20.00
2018-09-03T11:12:57.100Z,20.00
2018-09-03T11:15:25.294Z,20.00
2018-09-03T11:17:54.314Z,20.00
2018-09-03T11:20:22.520Z,20.00
2018-09-03T11:22:50.752Z,20.10
2018-09-03T11:25:18.995Z,20.10
2018-09-03T11:27:47.258Z,20.10
2018-09-03T11:30:15.467Z,20.20
2018-09-03T11:32:43.731Z,20.30
2018-09-03T11:35:11.980Z,20.30
2018-09-03T11:37:40.967Z,20.40
2018-09-03T11:40:09.215Z,20.40
2018-09-03T11:42:37.482Z,20.50
2018-09-03T11:45:06.439Z,20.60
2018-09-03T11:47:34.680Z,20.60
2018-09-03T11:50:02.926Z,20.50
2018-09-03T11:52:31.924Z,20.70
2018-09-03T11:55:00.913Z,20.70
2018-09-03T11:57:29.935Z,20.60
2018-09-03T11:59:58.192Z,20.60
2018-09-03T12:02:27.180Z,20.60
2018-09-03T12:04:56.206Z,20.60
2018-09-03T12:07:24.448Z,20.60
2018-09-03T12:09:52.664Z,20.60
2018-09-03T12:12:20.882Z,20.70
2018-09-03T12:14:49.143Z,20.70
2018-09-03T12:17:17.364Z,20.80
2018-09-03T12:19:46.335Z,20.80
2018-09-03T12:22:14.545Z,20.80
2018-09-03T12:24:42.809Z,20.90
2018-09-03T12:27:11.825Z,21.00
2018-09-03T12:29:40.073Z,21.00
2018-09-03T12:32:09.056Z,21.00
2018-09-03T12:34:38.028Z,21.00
2018-09-03T12:37:06.283Z,21.00
2018-09-03T12:39:34.475Z,21.00
2018-09-03T12:42:02.721Z,21.00
2018-09-03T12:44:30.961Z,21.10
2018-09-03T12:46:59.947Z,21.10
2018-09-03T12:49:28.939Z,21.20
2018-09-03T12:51:57.184Z,21.20
2018-09-03T12:54:25.410Z,21.20
2018-09-03T12:56:54.468Z,21.30
2018-09-03T12:59:22.673Z,21.20
2018-09-03T13:01:50.889Z,21.30
2018-09-03T13:04:19.189Z,21.30
2018-09-03T13:06:47.371Z,21.20
2018-09-03T13:09:15.646Z,21.30
2018-09-03T13:11:43.908Z,21.20
2018-09-03T13:14:12.105Z,21.20
2018-09-03T13:16:40.355Z,21.30
2018-09-03T13:19:08.572Z,21.40
2018-09-03T13:21:36.791Z,21.40
2018-09-03T13:24:05.025Z,21.40
2018-09-03T13:26:33.253Z,21.40
2018-09-03T13:29:01.465Z,21.50
2018-09-03T13:31:29.693Z,21.50
2018-09-03T13:33:58.241Z,21.50
2018-09-03T13:36:26.456Z,21.50
2018-09-03T13:38:54.736Z,21.50
2018-09-03T13:41:22.974Z,21.50
2018-09-03T13:43:51.182Z,21.50
2018-09-03T13:46:19.438Z,21.60
2018-09-03T13:48:47.655Z,21.60
2018-09-03T13:51:15.919Z,21.70
2018-09-03T13:53:44.181Z,21.80
2018-09-03T13:56:12.433Z,21.80
2018-09-03T13:58:40.692Z,22.00
2018-09-03T14:01:08.900Z,22.10
2018-09-03T14:03:37.181Z,22.30
2018-09-03T14:06:06.161Z,22.70
2018-09-03T14:08:35.148Z,23.00
2018-09-03T14:11:04.157Z,23.20
2018-09-03T14:13:33.177Z,23.50
2018-09-03T14:16:01.434Z,23.50
2018-09-03T14:18:30.423Z,23.90
2018-09-03T14:20:59.939Z,24.10
2018-09-03T14:23:28.196Z,24.10
2018-09-03T14:25:57.167Z,24.30
2018-09-03T14:28:25.438Z,24.30
2018-09-03T14:30:53.646Z,24.50
2018-09-03T14:33:22.624Z,24.80
2018-09-03T14:35:50.836Z,24.80
2018-09-03T14:38:19.098Z,25.20
2018-09-03T14:40:48.110Z,26.10
2018-09-03T14:43:16.366Z,26.00
2018-09-03T14:45:45.388Z,26.90
2018-09-03T14:48:13.602Z,26.80
2018-09-03T14:50:41.810Z,27.10
2018-09-03T14:53:10.806Z,27.50
2018-09-03T14:55:39.038Z,27.50
2018-09-03T14:58:07.266Z,27.70
2018-09-03T15:00:35.468Z,27.70
2018-09-03T15:03:03.689Z,27.80
2018-09-03T15:05:31.943Z,27.80
2018-09-03T15:08:00.282Z,27.90
2018-09-03T15:10:28.440Z,28.10
2018-09-03T15:12:57.444Z,28.70
2018-09-03T15:15:25.700Z,28.60
2018-09-03T15:17:54.695Z,29.10
2018-09-03T15:20:22.939Z,29.00
2018-09-03T15:22:51.147Z,29.20
2018-09-03T15:25:20.171Z,29.10
2018-09-03T15:27:48.388Z,29.10
2018-09-03T15:30:16.667Z,28.80
2018-09-03T15:32:44.886Z,28.60
2018-09-03T15:35:13.146Z,28.30
2018-09-03T15:37:41.410Z,28.10
2018-09-03T15:40:09.609Z,27.90
2018-09-03T15:42:37.831Z,27.70
2018-09-03T15:45:06.082Z,27.40
2018-09-03T15:47:34.301Z,27.20
2018-09-03T15:50:02.561Z,27.00
2018-09-03T15:52:30.779Z,26.90
2018-09-03T15:54:59.826Z,26.60
2018-09-03T15:57:28.057Z,26.60
2018-09-03T15:59:57.031Z,26.40
2018-09-03T16:02:25.840Z,26.30
2018-09-03T16:04:54.813Z,26.10
2018-09-03T16:07:23.077Z,26.00
2018-09-03T16:09:51.291Z,25.90
2018-09-03T16:12:20.331Z,25.60
2018-09-03T16:14:48.586Z,25.60
2018-09-03T16:17:16.794Z,25.50
2018-09-03T16:19:45.066Z,25.40
2018-09-03T16:22:13.278Z,25.30
2018-09-03T16:24:41.540Z,25.20
2018-09-03T16:27:09.750Z,25.20
2018-09-03T16:29:37.982Z,25.00
2018-09-03T16:32:06.204Z,24.90
2018-09-03T16:34:35.241Z,24.90
2018-09-03T16:37:03.455Z,24.90
2018-09-03T16:39:32.487Z,24.70
2018-09-03T16:42:00.756Z,24.70
2018-09-03T16:44:28.980Z,24.60
2018-09-03T16:46:57.222Z,24.50
2018-09-03T16:49:25.501Z,24.50
2018-09-03T16:51:53.738Z,24.40
2018-09-03T16:54:22.779Z,24.20
2018-09-03T16:56:51.026Z,24.20
2018-09-03T16:59:19.237Z,24.20
2018-09-03T17:01:47.499Z,24.10
2018-09-03T17:04:15.727Z,24.00
2018-09-03T17:06:43.982Z,24.00
2018-09-03T17:09:12.199Z,23.90
2018-09-03T17:11:41.228Z,23.90
2018-09-03T17:14:09.461Z,23.90
2018-09-03T17:16:38.500Z,23.80
2018-09-03T17:19:06.762Z,23.70
2018-09-03T17:21:35.040Z,23.70
2018-09-03T17:24:03.312Z,23.60
2018-09-03T17:26:31.516Z,23.50
2018-09-03T17:28:59.738Z,23.50
2018-09-03T17:31:29.386Z,23.40
2018-09-03T17:33:57.666Z,23.40
2018-09-03T17:36:25.890Z,23.30
2018-09-03T17:38:54.923Z,23.30
2018-09-03T17:41:23.126Z,23.30
2018-09-03T17:43:51.413Z,23.30
2018-09-03T17:46:19.644Z,23.20
2018-09-03T17:48:49.288Z,23.10
2018-09-03T17:51:17.560Z,23.10
2018-09-03T17:53:45.781Z,23.10
2018-09-03T17:56:13.999Z,23.00
2018-09-03T17:58:42.273Z,23.00
2018-09-03T18:01:10.475Z,23.00
2018-09-03T18:03:38.701Z,22.90
2018-09-03T18:06:07.685Z,22.80
2018-09-03T18:08:35.926Z,22.80
2018-09-03T18:11:04.139Z,22.80
2018-09-03T18:13:33.006Z,22.70
2018-09-03T18:16:01.247Z,22.70
2018-09-03T18:18:29.468Z,22.70
2018-09-03T18:20:57.699Z,22.60
2018-09-03T18:23:25.990Z,22.50
2018-09-03T18:25:54.228Z,22.50
2018-09-03T18:28:22.479Z,22.50
2018-09-03T18:30:50.781Z,22.40
2018-09-03T18:33:19.042Z,22.40
2018-09-03T18:35:48.064Z,22.40
2018-09-03T18:38:16.347Z,22.40
2018-09-03T18:40:44.596Z,22.40
2018-09-03T18:43:13.618Z,22.30
2018-09-03T18:45:41.905Z,22.30
2018-09-03T18:48:10.222Z,22.30
2018-09-03T18:50:38.488Z,22.20
2018-09-03T18:53:06.740Z,22.20
2018-09-03T18:55:34.997Z,22.20
2018-09-03T18:58:03.285Z,22.20
2018-09-03T19:00:32.955Z,22.20
2018-09-03T19:03:01.487Z,22.10
2018-09-03T19:05:29.751Z,22.20
2018-09-03T19:07:57.993Z,22.10
2018-09-03T19:10:26.247Z,22.10
2018-09-03T19:12:54.529Z,22.10
2018-09-03T19:15:22.776Z,22.10
2018-09-03T19:17:51.329Z,22.10
2018-09-03T19:20:20.303Z,22.00
2018-09-03T19:22:49.295Z,22.00
2018-09-03T19:25:18.347Z,22.00
2018-09-03T19:27:46.601Z,21.90
2018-09-03T19:30:14.916Z,21.90
2018-09-03T19:32:43.107Z,21.80
2018-09-03T19:35:11.346Z,21.80
2018-09-03T19:37:39.580Z,21.70
2018-09-03T19:40:07.882Z,21.70
2018-09-03T19:42:36.078Z,21.60
2018-09-03T19:45:04.338Z,21.60
2018-09-03T19:47:32.599Z,21.50
2018-09-03T19:50:01.592Z,21.30
2018-09-03T19:52:29.865Z,21.30
2018-09-03T19:54:58.881Z,20.90
2018-09-03T19:57:27.168Z,20.90
2018-09-03T19:59:55.428Z,20.90
2018-09-03T20:02:23.684Z,20.80
2018-09-03T20:04:52.653Z,20.80
2018-09-03T20:07:20.854Z,20.70
2018-09-03T20:09:50.817Z,20.70
2018-09-03T20:12:19.091Z,20.70
2018-09-03T20:14:47.342Z,20.60
2018-09-03T20:17:15.636Z,20.60
2018-09-03T20:19:43.782Z,20.60
2018-09-03T20:22:12.006Z,20.50
2018-09-03T20:24:40.293Z,20.50
2018-09-03T20:27:08.525Z,20.50
2018-09-03T20:29:36.740Z,20.40
2018-09-03T20:32:05.008Z,20.40
2018-09-03T20:34:33.263Z,20.30
2018-09-03T20:37:01.461Z,20.30
2018-09-03T20:39:29.735Z,20.30
2018-09-03T20:41:57.981Z,20.20
2018-09-03T20:44:27.045Z,20.20
2018-09-03T20:46:55.305Z,20.20
2018-09-03T20:49:23.567Z,20.20
2018-09-03T20:51:51.789Z,20.20
2018-09-03T20:54:20.802Z,20.10
2018-09-03T20:56:49.055Z,20.10
2018-09-03T20:59:17.307Z,20.10
2018-09-03T21:01:45.497Z,20.10
2018-09-03T21:04:13.754Z,20.10
2018-09-03T21:06:41.967Z,20.00
2018-09-03T21:09:10.947Z,20.00
2018-09-03T21:11:39.972Z,20.00
2018-09-03T21:14:08.505Z,20.00
2018-09-03T21:16:37.409Z,20.00
2018-09-03T21:19:05.695Z,19.90
2018-09-03T21:21:33.936Z,20.00
2018-09-03T21:24:02.279Z,20.00
2018-09-03T21:26:30.470Z,19.90
2018-09-03T21:28:58.684Z,19.90
2018-09-03T21:31:26.894Z,19.90
2018-09-03T21:33:55.191Z,19.90
2018-09-03T21:36:23.400Z,19.90
2018-09-03T21:38:51.612Z,19.90
2018-09-03T21:41:20.605Z,19.90
2018-09-03T21:43:49.595Z,19.90
2018-09-03T21:46:18.599Z,19.80
2018-09-03T21:48:47.601Z,19.80
2018-09-03T21:51:15.863Z,19.80
2018-09-03T21:53:44.075Z,19.80
2018-09-03T21:56:12.286Z,19.80
2018-09-03T21:58:40.607Z,19.80
2018-09-03T22:01:08.851Z,19.80
2018-09-03T22:03:37.071Z,19.80
2018-09-03T22:06:05.301Z,19.80
2018-09-03T22:08:33.537Z,19.80
2018-09-03T22:11:01.718Z,19.80
2018-09-03T22:13:29.988Z,19.70
2018-09-03T22:15:58.185Z,19.70
2018-09-03T22:18:26.456Z,19.70
2018-09-03T22:20:54.716Z,19.70
2018-09-03T22:23:22.978Z,19.70
2018-09-03T22:25:51.938Z,19.70
2018-09-03T22:28:20.163Z,19.70
2018-09-03T22:30:48.414Z,19.60
2018-09-03T22:33:17.445Z,19.70
2018-09-03T22:35:45.637Z,19.60
2018-09-03T22:38:13.858Z,19.60
2018-09-03T22:40:42.888Z,19.60
2018-09-03T22:43:11.097Z,19.60
2018-09-03T22:45:39.315Z,19.60
2018-09-03T22:48:07.572Z,19.60
2018-09-03T22:50:35.823Z,19.60
2018-09-03T22:53:04.018Z,19.60
2018-09-03T22:55:33.006Z,19.50
2018-09-03T22:58:01.220Z,19.50
2018-09-03T23:00:29.448Z,19.50
2018-09-03T23:02:57.694Z,19.50
2018-09-03T23:05:25.921Z,19.50
2018-09-03T23:07:54.938Z,19.50
2018-09-03T23:10:23.559Z,19.50
2018-09-03T23:12:51.804Z,19.50
2018-09-03T23:15:20.023Z,19.50
2018-09-03T23:17:48.278Z,19.50
2018-09-03T23:20:16.496Z,19.40
2018-09-03T23:22:44.746Z,19.50
2018-09-03T23:25:12.992Z,19.40
2018-09-03T23:27:41.252Z,19.40
2018-09-03T23:30:10.265Z,19.40
2018-09-03T23:32:38.500Z,19.40
2018-09-03T23:35:07.496Z,19.40
2018-09-03T23:37:36.467Z,19.40
2018-09-03T23:40:04.745Z,19.30
2018-09-03T23:42:32.947Z,19.40
2018-09-03T23:45:01.163Z,19.30
2018-09-03T23:47:29.457Z,19.30
2018-09-03T23:49:57.691Z,19.20
2018-09-03T23:52:25.967Z,19.20
2018-09-03T23:54:54.955Z,19.20
2018-09-03T23:57:23.935Z,19.20
2018-09-03T23:59:52.199Z,19.20
